createdAt,value
2022-12-31T00:00:53.295Z,100085.36
2022-12-31T00:03:40.175Z,100082.55
2022-12-31T00:06:31.736Z,100074.39
2022-12-31T00:09:18.428Z,100071.16
2022-12-31T00:12:05.289Z,100073.39
2022-12-31T00:14:51.394Z,100076.52
2022-12-31T00:17:37.696Z,100075.45
2022-12-31T00:20:24.003Z,100074.38
2022-12-31T00:23:10.958Z,100072.14
2022-12-31T00:25:57.215Z,100072.95
2022-12-31T00:28:44.161Z,100072.38
2022-12-31T00:31:33.018Z,100070.27
2022-12-31T00:34:19.418Z,100068.74
2022-12-31T00:37:06.081Z,100069.26
2022-12-31T00:39:52.289Z,100069.23
2022-12-31T00:42:38.865Z,100074.08
2022-12-31T00:45:25.270Z,100076.45
2022-12-31T00:48:11.436Z,100085.98
2022-12-31T00:50:58.748Z,100093.16
2022-12-31T00:53:45.213Z,100093.94
2022-12-31T00:56:32.049Z,100097.77
2022-12-31T00:59:18.780Z,100100.15
2022-12-31T01:02:05.610Z,100099.23
2022-12-31T01:04:52.039Z,100098.30
2022-12-31T01:07:38.751Z,100100.73
2022-12-31T01:10:44.270Z,100100.38
2022-12-31T01:13:30.487Z,100104.65
2022-12-31T01:16:19.273Z,100097.50
2022-12-31T01:19:08.965Z,100093.95
2022-12-31T01:21:55.693Z,100086.90
2022-12-31T01:24:42.122Z,100082.20
2022-12-31T01:27:29.040Z,100080.42
2022-12-31T01:30:15.360Z,100081.27
2022-12-31T01:33:01.376Z,100082.77
2022-12-31T01:35:47.731Z,100081.83
2022-12-31T01:38:35.314Z,100082.19
2022-12-31T01:41:48.097Z,100089.16
2022-12-31T01:44:40.634Z,100098.24
2022-12-31T01:47:40.355Z,100109.55
2022-12-31T01:50:32.325Z,100115.13
2022-12-31T01:53:18.675Z,100124.34
2022-12-31T01:56:06.600Z,100127.90
2022-12-31T01:58:55.364Z,100129.75
2022-12-31T02:01:41.780Z,100130.20
2022-12-31T02:04:28.821Z,100127.63
2022-12-31T02:07:15.381Z,100128.09
2022-12-31T02:10:01.901Z,100129.29
2022-12-31T02:12:48.207Z,100131.95
2022-12-31T02:15:56.063Z,100139.89
2022-12-31T02:18:51.673Z,100136.61
2022-12-31T02:22:11.798Z,100133.91
2022-12-31T02:25:16.889Z,100130.70
2022-12-31T02:28:16.248Z,100129.77
2022-12-31T02:31:12.558Z,100129.94
2022-12-31T02:34:04.630Z,100128.44
2022-12-31T02:36:51.690Z,100131.73
2022-12-31T02:39:38.430Z,100127.27
2022-12-31T02:42:25.074Z,100126.91
2022-12-31T02:45:14.030Z,100132.34
2022-12-31T02:52:14.007Z,100146.75
2022-12-31T02:55:03.242Z,100142.59
2022-12-31T02:58:01.083Z,100132.29
2022-12-31T03:01:13.409Z,100135.83
2022-12-31T03:04:18.608Z,100135.71
2022-12-31T03:07:18.842Z,100132.36
2022-12-31T03:10:06.029Z,100140.36
2022-12-31T03:12:52.628Z,100139.03
2022-12-31T03:15:39.757Z,100140.70
2022-12-31T03:18:46.345Z,100143.17
2022-12-31T03:21:51.659Z,100147.66
2022-12-31T03:24:56.885Z,100145.30
2022-12-31T03:27:44.478Z,100145.29
2022-12-31T03:30:31.962Z,100151.00
2022-12-31T03:33:19.572Z,100154.86
2022-12-31T03:36:13.026Z,100164.11
2022-12-31T03:38:59.422Z,100171.27
2022-12-31T03:41:45.993Z,100172.30
2022-12-31T03:44:32.800Z,100177.11
2022-12-31T03:47:19.189Z,100177.73
2022-12-31T03:50:08.084Z,100180.10
2022-12-31T03:52:54.926Z,100179.35
2022-12-31T03:55:41.273Z,100180.85
2022-12-31T03:58:28.100Z,100175.30
2022-12-31T04:01:14.667Z,100174.76
2022-12-31T04:04:00.962Z,100169.84
2022-12-31T04:06:48.036Z,100166.98
2022-12-31T04:09:34.644Z,100170.72
2022-12-31T04:12:21.619Z,100161.12
2022-12-31T04:15:13.288Z,100156.89
2022-12-31T04:18:00.102Z,100160.30
2022-12-31T04:20:46.932Z,100153.16
2022-12-31T04:23:33.682Z,100144.21
2022-12-31T04:26:20.094Z,100124.49
2022-12-31T04:29:07.046Z,100123.27
2022-12-31T04:31:53.522Z,100125.91
2022-12-31T04:34:40.488Z,100125.36
2022-12-31T04:37:27.421Z,100137.70
2022-12-31T04:40:13.925Z,100153.50
2022-12-31T04:43:00.506Z,100162.23
2022-12-31T04:45:47.405Z,100161.09
2022-12-31T04:48:34.346Z,100157.77
2022-12-31T04:51:21.837Z,100164.29
2022-12-31T04:54:08.630Z,100152.39
2022-12-31T04:56:55.509Z,100149.06
2022-12-31T04:59:42.376Z,100155.14
2022-12-31T05:02:30.302Z,100152.77
2022-12-31T05:05:16.966Z,100157.46
2022-12-31T05:08:03.568Z,100156.45
2022-12-31T05:10:50.382Z,100153.86
2022-12-31T05:13:37.020Z,100149.45
2022-12-31T05:16:23.707Z,100144.88
2022-12-31T05:19:10.519Z,100148.13
2022-12-31T05:22:16.107Z,100150.68
2022-12-31T05:25:02.500Z,100150.42
2022-12-31T05:27:48.898Z,100154.38
2022-12-31T05:30:36.217Z,100159.11
2022-12-31T05:33:23.207Z,100165.92
2022-12-31T05:36:10.141Z,100166.64
2022-12-31T05:38:56.647Z,100171.02
2022-12-31T05:41:43.346Z,100168.27
2022-12-31T05:44:30.282Z,100159.52
2022-12-31T05:47:17.382Z,100151.36
2022-12-31T05:50:04.195Z,100150.92
2022-12-31T05:52:50.710Z,100162.60
2022-12-31T05:55:37.475Z,100161.26
2022-12-31T05:58:24.082Z,100157.84
2022-12-31T06:01:10.899Z,100160.13
2022-12-31T06:03:57.371Z,100157.61
2022-12-31T06:06:43.918Z,100159.76
2022-12-31T06:09:30.466Z,100164.23
2022-12-31T06:12:17.351Z,100166.73
2022-12-31T06:15:04.657Z,100166.13
2022-12-31T06:17:51.097Z,100164.27
2022-12-31T06:20:37.957Z,100159.45
2022-12-31T06:23:24.500Z,100160.07
2022-12-31T06:26:10.868Z,100168.56
2022-12-31T06:28:57.113Z,100183.83
2022-12-31T06:31:43.964Z,100188.67
2022-12-31T06:34:30.793Z,100182.19
2022-12-31T06:37:16.865Z,100181.67
2022-12-31T06:40:03.822Z,100178.23
2022-12-31T06:42:53.388Z,100176.61
2022-12-31T06:45:44.166Z,100168.27
2022-12-31T06:48:31.080Z,100173.64
2022-12-31T06:51:19.902Z,100168.06
2022-12-31T06:54:06.606Z,100165.42
2022-12-31T06:56:53.199Z,100168.74
2022-12-31T06:59:40.150Z,100178.00
2022-12-31T07:02:45.248Z,100181.08
2022-12-31T07:05:34.680Z,100179.55
2022-12-31T07:08:39.805Z,100189.62
2022-12-31T07:11:35.920Z,100190.48
2022-12-31T07:14:46.102Z,100188.15
2022-12-31T07:17:45.752Z,100181.41
2022-12-31T07:20:32.427Z,100205.96
2022-12-31T07:23:19.401Z,100195.50
2022-12-31T07:26:22.812Z,100194.67
2022-12-31T07:29:23.217Z,100188.38
2022-12-31T07:32:34.690Z,100191.55
2022-12-31T07:35:32.966Z,100200.51
2022-12-31T07:38:39.404Z,100209.41
2022-12-31T07:41:54.955Z,100205.54
2022-12-31T07:44:48.963Z,100199.02
2022-12-31T07:47:35.685Z,100196.79
2022-12-31T07:50:22.598Z,100194.99
2022-12-31T07:53:09.179Z,100193.86
2022-12-31T07:56:00.521Z,100197.58
2022-12-31T07:59:08.550Z,100210.45
2022-12-31T08:02:21.113Z,100217.43
2022-12-31T08:05:22.823Z,100220.71
2022-12-31T08:08:23.500Z,100222.69
2022-12-31T08:11:26.731Z,100229.10
2022-12-31T08:14:14.202Z,100232.95
2022-12-31T08:17:00.623Z,100222.64
2022-12-31T08:19:47.230Z,100218.06
2022-12-31T08:22:47.742Z,100221.19
2022-12-31T08:25:50.671Z,100220.10
2022-12-31T08:29:01.925Z,100223.44
2022-12-31T08:31:57.113Z,100232.34
2022-12-31T08:34:54.731Z,100226.48
2022-12-31T08:37:44.046Z,100226.42
2022-12-31T08:40:45.479Z,100229.45
2022-12-31T08:43:54.522Z,100226.44
2022-12-31T08:46:45.020Z,100219.52
2022-12-31T08:49:33.673Z,100218.23
2022-12-31T08:52:23.799Z,100215.63
2022-12-31T08:55:18.744Z,100216.36
2022-12-31T08:58:08.508Z,100213.56
2022-12-31T09:00:57.633Z,100206.64
2022-12-31T09:03:55.758Z,100203.88
2022-12-31T09:06:48.899Z,100195.83
2022-12-31T09:09:53.879Z,100192.05
2022-12-31T09:13:06.214Z,100200.23
2022-12-31T09:16:02.096Z,100203.33
2022-12-31T09:18:48.222Z,100212.31
2022-12-31T09:21:34.566Z,100215.71
2022-12-31T09:24:21.335Z,100211.41
2022-12-31T09:27:25.462Z,100209.99
2022-12-31T09:30:16.348Z,100210.69
2022-12-31T09:33:13.255Z,100210.56
2022-12-31T09:36:06.514Z,100210.11
2022-12-31T09:39:03.347Z,100203.10
2022-12-31T09:42:18.611Z,100204.75
2022-12-31T09:45:14.110Z,100204.00
2022-12-31T09:48:32.718Z,100207.84
2022-12-31T09:51:25.710Z,100206.48
2022-12-31T09:54:28.355Z,100203.91
2022-12-31T09:57:20.701Z,100193.67
2022-12-31T10:00:12.385Z,100196.61
2022-12-31T10:03:24.179Z,100203.05
2022-12-31T10:06:39.643Z,100199.00
2022-12-31T10:09:36.078Z,100194.86
2022-12-31T10:12:35.579Z,100187.70
2022-12-31T10:15:45.096Z,100189.45
2022-12-31T10:18:59.051Z,100190.42
2022-12-31T10:22:07.875Z,100192.30
2022-12-31T10:25:38.572Z,100186.07
2022-12-31T10:28:49.307Z,100186.13
2022-12-31T10:31:41.476Z,100182.65
2022-12-31T10:34:52.557Z,100181.95
2022-12-31T10:37:52.280Z,100175.84
2022-12-31T10:41:11.851Z,100176.60
2022-12-31T10:44:22.021Z,100172.05
2022-12-31T10:47:53.306Z,100173.96
2022-12-31T10:50:57.727Z,100165.86
2022-12-31T10:54:02.212Z,100168.63
2022-12-31T10:56:57.596Z,100163.07
2022-12-31T11:00:09.495Z,100162.68
2022-12-31T11:02:58.640Z,100170.09
2022-12-31T11:06:09.052Z,100164.36
2022-12-31T11:09:22.218Z,100169.41
2022-12-31T11:12:11.360Z,100167.30
2022-12-31T11:15:06.789Z,100167.95
2022-12-31T11:18:22.032Z,100160.30
2022-12-31T11:21:28.253Z,100161.54
2022-12-31T11:24:25.706Z,100152.51
2022-12-31T11:27:49.705Z,100156.14
2022-12-31T11:30:56.231Z,100147.24
2022-12-31T11:34:04.231Z,100145.77
2022-12-31T11:36:59.567Z,100141.91
2022-12-31T11:39:52.256Z,100139.36
2022-12-31T11:43:16.847Z,100138.67
2022-12-31T11:46:19.198Z,100140.79
2022-12-31T11:49:32.120Z,100138.02
2022-12-31T11:52:32.155Z,100132.09
2022-12-31T11:55:34.145Z,100137.04
2022-12-31T11:58:20.970Z,100131.30
2022-12-31T12:01:12.782Z,100140.95
2022-12-31T12:03:59.111Z,100138.52
2022-12-31T12:06:46.195Z,100137.34
2022-12-31T12:09:34.515Z,100130.85
2022-12-31T12:12:21.713Z,100130.11
2022-12-31T12:15:10.197Z,100133.41
2022-12-31T12:17:58.595Z,100123.32
2022-12-31T12:20:46.375Z,100123.94
2022-12-31T12:23:33.118Z,100130.51
2022-12-31T12:26:47.340Z,100132.09
2022-12-31T12:29:34.739Z,100137.12
2022-12-31T12:32:26.399Z,100139.54
2022-12-31T12:35:19.769Z,100141.49
2022-12-31T12:38:08.300Z,100146.21
2022-12-31T12:40:58.719Z,100141.98
2022-12-31T12:43:45.504Z,100139.42
2022-12-31T12:46:58.299Z,100148.86
2022-12-31T12:49:47.542Z,100146.36
2022-12-31T12:52:59.182Z,100152.11
2022-12-31T12:56:24.990Z,100144.89
2022-12-31T12:59:21.369Z,100145.83
2022-12-31T13:02:16.826Z,100141.93
2022-12-31T13:05:28.327Z,100145.17
2022-12-31T13:08:52.960Z,100145.12
2022-12-31T13:11:59.896Z,100146.12
2022-12-31T13:14:56.037Z,100146.64
2022-12-31T13:17:58.611Z,100151.09
2022-12-31T13:20:52.418Z,100150.31
2022-12-31T13:23:45.031Z,100151.77
2022-12-31T13:27:03.323Z,100147.61
2022-12-31T13:29:50.424Z,100154.65
2022-12-31T13:33:00.196Z,100155.70
2022-12-31T13:35:55.616Z,100162.17
2022-12-31T13:38:45.795Z,100164.23
2022-12-31T13:41:40.052Z,100162.83
2022-12-31T13:44:39.673Z,100161.38
2022-12-31T13:47:48.278Z,100166.68
2022-12-31T13:50:41.111Z,100165.63
2022-12-31T13:54:02.231Z,100167.43
2022-12-31T13:56:49.380Z,100163.24
2022-12-31T13:59:38.789Z,100166.88
2022-12-31T14:02:39.838Z,100164.81
2022-12-31T14:05:33.378Z,100162.14
2022-12-31T14:08:19.778Z,100170.71
2022-12-31T14:11:25.336Z,100177.42
2022-12-31T14:14:59.113Z,100181.09
2022-12-31T14:17:59.329Z,100179.27
2022-12-31T14:21:12.037Z,100178.20
2022-12-31T14:24:31.915Z,100183.66
2022-12-31T14:27:26.311Z,100188.42
2022-12-31T14:30:21.416Z,100189.94
2022-12-31T14:33:32.968Z,100190.67
2022-12-31T14:36:37.162Z,100195.94
2022-12-31T14:39:34.805Z,100195.48
2022-12-31T14:42:33.046Z,100193.83
2022-12-31T14:45:54.065Z,100195.83
2022-12-31T14:48:43.409Z,100193.13
2022-12-31T14:51:30.521Z,100185.59
2022-12-31T14:54:37.505Z,100183.20
2022-12-31T14:57:25.540Z,100185.74
2022-12-31T15:00:38.275Z,100184.08
2022-12-31T15:03:34.578Z,100184.95
2022-12-31T15:06:24.173Z,100183.84
2022-12-31T15:09:22.155Z,100185.81
2022-12-31T15:12:50.107Z,100179.30
2022-12-31T15:15:56.327Z,100180.84
2022-12-31T15:19:05.045Z,100188.03
2022-12-31T15:22:01.453Z,100188.73
2022-12-31T15:24:48.022Z,100187.06
2022-12-31T15:27:38.586Z,100180.43
2022-12-31T15:30:44.938Z,100185.50
2022-12-31T15:33:36.256Z,100197.08
2022-12-31T15:36:28.874Z,100205.00
2022-12-31T15:39:14.889Z,100208.98
2022-12-31T15:45:31.736Z,100217.89
2022-12-31T15:48:22.171Z,100225.33
2022-12-31T15:51:11.473Z,100227.89
2022-12-31T15:54:00.745Z,100229.99
2022-12-31T15:56:49.233Z,100228.59
2022-12-31T15:59:36.516Z,100227.13
2022-12-31T16:02:27.057Z,100235.70
2022-12-31T16:05:21.633Z,100242.77
2022-12-31T16:08:17.538Z,100243.36
2022-12-31T16:11:07.602Z,100238.30
2022-12-31T16:13:54.924Z,100250.25
2022-12-31T16:16:52.058Z,100245.17
2022-12-31T16:19:46.137Z,100255.50
2022-12-31T16:22:39.581Z,100258.15
2022-12-31T16:25:31.210Z,100258.69
2022-12-31T16:28:20.465Z,100265.85
2022-12-31T16:31:08.649Z,100268.52
2022-12-31T16:34:19.612Z,100271.61
2022-12-31T16:37:13.558Z,100275.48
2022-12-31T16:39:59.879Z,100274.21
2022-12-31T16:42:47.282Z,100277.53
2022-12-31T16:45:37.013Z,100285.97
2022-12-31T16:48:23.755Z,100290.70
2022-12-31T16:51:16.678Z,100292.02
2022-12-31T16:54:03.731Z,100290.20
2022-12-31T16:56:50.253Z,100290.81
2022-12-31T16:59:41.466Z,100292.87
2022-12-31T17:02:44.175Z,100294.04
2022-12-31T17:05:32.621Z,100295.84
2022-12-31T17:08:24.926Z,100295.90
2022-12-31T17:11:42.319Z,100296.44
2022-12-31T17:14:29.173Z,100302.66
2022-12-31T17:17:24.098Z,100305.58
2022-12-31T17:20:27.045Z,100307.57
2022-12-31T17:23:22.733Z,100304.55
2022-12-31T17:26:14.358Z,100310.63
2022-12-31T17:29:02.586Z,100314.33
2022-12-31T17:32:01.802Z,100313.39
2022-12-31T17:34:50.340Z,100313.98
2022-12-31T17:37:36.899Z,100310.04
2022-12-31T17:40:53.183Z,100317.83
2022-12-31T17:43:40.315Z,100324.47
2022-12-31T17:46:27.114Z,100322.99
2022-12-31T17:49:16.510Z,100318.73
2022-12-31T17:52:03.319Z,100321.95
2022-12-31T17:54:50.062Z,100329.72
2022-12-31T17:57:36.518Z,100335.81
2022-12-31T18:00:25.637Z,100338.05
2022-12-31T18:03:11.854Z,100333.71
2022-12-31T18:05:58.557Z,100338.77
2022-12-31T18:11:23.222Z,100339.84
2022-12-31T18:14:16.132Z,100340.60
2022-12-31T18:17:02.834Z,100343.55
2022-12-31T18:20:04.685Z,100345.67
2022-12-31T18:22:52.814Z,100346.58
2022-12-31T18:28:25.380Z,100347.80
2022-12-31T18:31:25.265Z,100342.21
2022-12-31T18:34:13.707Z,100335.83
2022-12-31T18:37:00.874Z,100337.33
2022-12-31T18:39:48.134Z,100335.86
2022-12-31T18:42:35.003Z,100334.22
2022-12-31T18:45:21.835Z,100331.20
2022-12-31T18:48:08.639Z,100335.67
2022-12-31T18:50:56.306Z,100327.74
2022-12-31T18:53:42.917Z,100332.54
2022-12-31T18:56:29.643Z,100325.66
2022-12-31T18:59:16.437Z,100326.23
2022-12-31T19:02:03.154Z,100319.24
2022-12-31T19:04:50.409Z,100320.70
2022-12-31T19:07:37.159Z,100324.74
2022-12-31T19:10:25.703Z,100327.48
2022-12-31T19:13:13.390Z,100321.94
2022-12-31T19:16:01.241Z,100320.98
2022-12-31T19:18:49.609Z,100318.96
2022-12-31T19:21:36.088Z,100323.06
2022-12-31T19:24:26.771Z,100329.11
2022-12-31T19:27:14.163Z,100332.95
2022-12-31T19:30:01.472Z,100329.13
2022-12-31T19:32:48.488Z,100324.59
2022-12-31T19:35:35.251Z,100331.79
2022-12-31T19:38:24.320Z,100331.30
2022-12-31T19:41:19.449Z,100328.30
2022-12-31T19:44:06.210Z,100335.95
2022-12-31T19:46:53.249Z,100335.36
2022-12-31T19:49:39.860Z,100336.55
2022-12-31T19:52:26.532Z,100335.13
2022-12-31T19:55:15.748Z,100337.70
2022-12-31T19:58:02.388Z,100337.18
2022-12-31T20:00:55.680Z,100339.66
2022-12-31T20:03:44.769Z,100346.58
2022-12-31T20:06:31.648Z,100343.62
2022-12-31T20:09:18.514Z,100346.75
2022-12-31T20:23:02.793Z,100349.04
2022-12-31T20:25:59.882Z,100349.48
2022-12-31T20:28:46.755Z,100350.58
2022-12-31T20:31:33.595Z,100352.38
2022-12-31T20:34:20.465Z,100349.55
2022-12-31T20:37:07.539Z,100352.09
2022-12-31T20:39:54.196Z,100361.73
2022-12-31T20:42:41.623Z,100356.71
2022-12-31T20:45:28.067Z,100353.98
2022-12-31T20:48:15.060Z,100356.27
2022-12-31T20:51:02.098Z,100357.19
2022-12-31T20:53:57.742Z,100353.72
2022-12-31T20:56:44.188Z,100353.54
2022-12-31T20:59:30.732Z,100350.57
2022-12-31T21:02:21.639Z,100351.70
2022-12-31T21:05:09.299Z,100353.83
2022-12-31T21:07:56.473Z,100356.81
2022-12-31T21:10:43.093Z,100353.27
2022-12-31T21:13:31.289Z,100353.80
2022-12-31T21:16:18.132Z,100353.31
2022-12-31T21:19:05.560Z,100347.35
2022-12-31T21:21:52.328Z,100342.24
2022-12-31T21:24:39.265Z,100338.70
2022-12-31T21:27:25.858Z,100333.30
2022-12-31T21:30:20.606Z,100334.76
2022-12-31T21:33:08.593Z,100332.15
2022-12-31T21:35:58.568Z,100325.23
2022-12-31T21:38:48.214Z,100325.65
2022-12-31T21:41:53.480Z,100326.52
2022-12-31T21:44:39.943Z,100329.55
2022-12-31T21:47:50.172Z,100333.87
2022-12-31T21:50:36.832Z,100328.85
2022-12-31T21:53:28.993Z,100332.63
2022-12-31T21:56:21.610Z,100339.58
2022-12-31T21:59:42.996Z,100340.62
2022-12-31T22:02:59.579Z,100346.11
2022-12-31T22:05:50.352Z,100352.53
2022-12-31T22:08:37.046Z,100354.38
2022-12-31T22:11:26.113Z,100353.05
2022-12-31T22:14:13.913Z,100344.44
2022-12-31T22:17:00.807Z,100347.15
2022-12-31T22:20:17.035Z,100347.15
2022-12-31T22:22:54.483Z,100351.18
2022-12-31T22:25:41.127Z,100346.60
2022-12-31T22:28:43.913Z,100350.67
2022-12-31T22:31:31.216Z,100352.09
2022-12-31T22:34:18.486Z,100352.73
2022-12-31T22:37:27.550Z,100356.36
2022-12-31T22:40:12.868Z,100351.09
2022-12-31T22:42:59.545Z,100355.64
2022-12-31T22:45:46.150Z,100350.42
2022-12-31T22:48:32.528Z,100352.73
2022-12-31T22:51:20.307Z,100356.10
2022-12-31T22:54:06.845Z,100354.26
2022-12-31T22:56:53.855Z,100348.45
2022-12-31T22:59:40.501Z,100354.20
2022-12-31T23:02:27.612Z,100355.91
2022-12-31T23:05:14.962Z,100361.17
2022-12-31T23:08:07.947Z,100357.57
2022-12-31T23:11:00.277Z,100358.92
2022-12-31T23:14:05.713Z,100360.77
2022-12-31T23:17:30.991Z,100358.42
2022-12-31T23:20:39.719Z,100355.48
2022-12-31T23:23:26.644Z,100348.95
2022-12-31T23:26:13.243Z,100351.21
2022-12-31T23:29:00.608Z,100345.98
2022-12-31T23:31:47.848Z,100343.23
2022-12-31T23:34:35.281Z,100339.02
2022-12-31T23:37:22.077Z,100336.70
2022-12-31T23:40:12.329Z,100335.86
2022-12-31T23:43:03.234Z,100340.14
2022-12-31T23:45:51.004Z,100344.64
2022-12-31T23:48:37.976Z,100345.33
2022-12-31T23:51:24.784Z,100354.63
2022-12-31T23:54:13.196Z,100361.09
2022-12-31T23:56:59.648Z,100367.67
2022-12-31T23:59:46.859Z,100373.33
